createdAt,value
2017-08-03T00:00:03.927Z,0
2017-08-03T00:01:14.194Z,0
2017-08-03T00:02:24.144Z,0
2017-08-03T00:03:34.412Z,0
2017-08-03T00:04:44.681Z,0
2017-08-03T00:05:54.636Z,0
2017-08-03T00:07:04.907Z,0
2017-08-03T00:08:14.554Z,0
2017-08-03T00:09:24.833Z,0
2017-08-03T00:10:34.783Z,0
2017-08-03T00:11:45.066Z,0
2017-08-03T00:12:55.027Z,0
2017-08-03T00:14:05.292Z,0
2017-08-03T00:15:15.253Z,0
2017-08-03T00:16:24.887Z,0
2017-08-03T00:17:35.149Z,0
2017-08-03T00:18:45.418Z,0
2017-08-03T00:19:55.684Z,0
2017-08-03T00:21:05.949Z,0
2017-08-03T00:22:16.221Z,0
2017-08-03T00:23:26.514Z,0
2017-08-03T00:24:36.802Z,0
2017-08-03T00:25:47.070Z,0
2017-08-03T00:26:57.339Z,0
2017-08-03T00:28:07.605Z,0
2017-08-03T00:29:17.877Z,0
2017-08-03T00:30:28.170Z,0
2017-08-03T00:31:38.119Z,0
2017-08-03T00:32:48.398Z,0
2017-08-03T00:33:58.668Z,0
2017-08-03T00:35:08.954Z,0
2017-08-03T00:36:19.224Z,0
2017-08-03T00:37:29.489Z,0
2017-08-03T00:38:39.754Z,0
2017-08-03T00:39:49.391Z,0
2017-08-03T00:40:59.037Z,0
2017-08-03T00:42:09.302Z,0
2017-08-03T00:43:19.253Z,0
2017-08-03T00:44:29.519Z,0
2017-08-03T00:45:39.786Z,0
2017-08-03T00:46:49.732Z,0
2017-08-03T00:47:59.370Z,0
2017-08-03T00:49:09.638Z,0
2017-08-03T00:50:19.590Z,0
2017-08-03T00:51:29.854Z,0
2017-08-03T00:52:40.152Z,0
2017-08-03T00:53:50.432Z,0
2017-08-03T00:55:00.699Z,0
2017-08-03T00:56:10.967Z,0
2017-08-03T00:57:21.237Z,0
2017-08-03T00:58:31.500Z,0
2017-08-03T00:59:41.772Z,0
2017-08-03T01:00:52.042Z,0
2017-08-03T01:02:02.310Z,0
2017-08-03T01:03:12.574Z,0
2017-08-03T01:04:22.845Z,0
2017-08-03T01:05:32.799Z,0
2017-08-03T01:06:43.074Z,0
2017-08-03T01:07:53.358Z,0
2017-08-03T01:09:03.622Z,0
2017-08-03T01:10:13.579Z,0
2017-08-03T01:11:23.531Z,0
2017-08-03T01:12:33.483Z,0
2017-08-03T01:13:43.748Z,0
2017-08-03T01:14:54.012Z,0
2017-08-03T01:16:03.963Z,0
2017-08-03T01:17:14.242Z,0
2017-08-03T01:18:24.196Z,0
2017-08-03T01:19:34.150Z,0
2017-08-03T01:20:44.419Z,0
2017-08-03T01:21:54.371Z,0
2017-08-03T01:23:04.641Z,0
2017-08-03T01:24:14.916Z,0
2017-08-03T01:25:25.187Z,0
2017-08-03T01:26:35.448Z,0
2017-08-03T01:27:45.712Z,0
2017-08-03T01:28:55.987Z,0
2017-08-03T01:30:06.253Z,0
2017-08-03T01:31:16.226Z,0
2017-08-03T01:32:26.490Z,0
2017-08-03T01:33:36.444Z,0
2017-08-03T01:34:46.715Z,0
2017-08-03T01:35:56.679Z,0
2017-08-03T01:37:06.943Z,0
2017-08-03T01:38:16.589Z,0
2017-08-03T01:39:26.544Z,0
2017-08-03T01:40:36.817Z,0
2017-08-03T01:41:47.083Z,0
2017-08-03T01:42:57.041Z,0
2017-08-03T01:44:07.308Z,0
2017-08-03T01:45:17.580Z,0
2017-08-03T01:46:27.863Z,0
2017-08-03T01:47:38.137Z,0
2017-08-03T01:48:48.404Z,0
2017-08-03T01:49:58.675Z,0
2017-08-03T01:51:08.947Z,0
2017-08-03T01:52:19.214Z,0
2017-08-03T01:53:29.172Z,0
2017-08-03T01:54:39.438Z,0
2017-08-03T01:55:49.698Z,0
2017-08-03T01:56:59.967Z,0
2017-08-03T01:58:09.937Z,0
2017-08-03T01:59:20.201Z,0
2017-08-03T02:00:30.499Z,0
2017-08-03T02:01:40.759Z,0
2017-08-03T02:02:51.030Z,0
2017-08-03T02:04:01.302Z,0
2017-08-03T02:05:11.254Z,0
2017-08-03T02:06:21.528Z,0
2017-08-03T02:07:31.483Z,0
2017-08-03T02:08:41.851Z,0
2017-08-03T02:09:51.806Z,0
2017-08-03T02:11:02.073Z,0
2017-08-03T02:12:12.353Z,0
2017-08-03T02:13:22.620Z,0
2017-08-03T02:14:32.575Z,0
2017-08-03T02:15:42.837Z,0
2017-08-03T02:16:53.116Z,0
2017-08-03T02:18:03.389Z,0
2017-08-03T02:19:13.652Z,0
2017-08-03T02:20:23.918Z,0
2017-08-03T02:21:33.867Z,0
2017-08-03T02:22:44.140Z,0
2017-08-03T02:23:54.103Z,0
2017-08-03T02:25:04.372Z,0
2017-08-03T02:26:14.638Z,0
2017-08-03T02:27:24.903Z,0
2017-08-03T02:28:34.857Z,0
2017-08-03T02:29:45.120Z,0
2017-08-03T02:30:55.384Z,0
2017-08-03T02:32:05.043Z,0
2017-08-03T02:33:15.309Z,0
2017-08-03T02:34:25.575Z,0
2017-08-03T02:35:35.533Z,0
2017-08-03T02:36:45.799Z,0
2017-08-03T02:37:56.073Z,0
2017-08-03T02:39:06.343Z,0
2017-08-03T02:40:16.630Z,0
2017-08-03T02:41:26.904Z,0
2017-08-03T02:42:37.175Z,0
2017-08-03T02:43:47.443Z,0
2017-08-03T02:44:57.403Z,0
2017-08-03T02:46:07.667Z,5
2017-08-03T02:47:17.624Z,5
2017-08-03T02:48:27.917Z,5
2017-08-03T02:49:38.183Z,5
2017-08-03T02:50:47.887Z,5
2017-08-03T02:51:57.852Z,5
2017-08-03T02:53:08.121Z,5
2017-08-03T02:54:18.075Z,5
2017-08-03T02:55:28.027Z,10
2017-08-03T02:56:38.299Z,10
2017-08-03T02:57:48.565Z,10
2017-08-03T02:58:58.519Z,10
2017-08-03T03:00:08.789Z,10
2017-08-03T03:01:19.055Z,10
2017-08-03T03:02:29.330Z,15
2017-08-03T03:03:39.602Z,15
2017-08-03T03:04:49.866Z,15
2017-08-03T03:06:00.135Z,15
2017-08-03T03:07:13.874Z,15
2017-08-03T03:08:23.829Z,20
2017-08-03T03:09:34.092Z,20
2017-08-03T03:10:44.367Z,20
2017-08-03T03:11:54.638Z,20
2017-08-03T03:13:04.900Z,20
2017-08-03T03:14:15.168Z,20
2017-08-03T03:15:25.124Z,25
2017-08-03T03:16:35.100Z,25
2017-08-03T03:17:45.362Z,25
2017-08-03T03:18:55.628Z,25
2017-08-03T03:20:05.892Z,30
2017-08-03T03:21:15.533Z,30
2017-08-03T03:22:25.803Z,30
2017-08-03T03:23:35.143Z,30
2017-08-03T03:24:45.408Z,30
2017-08-03T03:25:55.679Z,35
2017-08-03T03:27:05.946Z,35
2017-08-03T03:28:16.221Z,35
2017-08-03T03:29:26.179Z,35
2017-08-03T03:30:36.453Z,45
2017-08-03T03:31:46.717Z,40
2017-08-03T03:32:56.667Z,45
2017-08-03T03:34:06.621Z,45
2017-08-03T03:35:16.569Z,45
2017-08-03T03:36:26.837Z,45
2017-08-03T03:37:36.789Z,50
2017-08-03T03:38:47.053Z,50
2017-08-03T03:39:57.326Z,45
2017-08-03T03:41:07.590Z,50
2017-08-03T03:42:17.857Z,50
2017-08-03T03:43:28.136Z,50
2017-08-03T03:44:37.777Z,50
2017-08-03T03:45:47.414Z,55
2017-08-03T03:46:57.677Z,55
2017-08-03T03:48:07.946Z,55
2017-08-03T03:49:18.212Z,55
2017-08-03T03:50:28.165Z,60
2017-08-03T03:51:38.431Z,60
2017-08-03T03:52:48.382Z,65
2017-08-03T03:53:58.649Z,65
2017-08-03T03:55:08.913Z,65
2017-08-03T03:56:19.181Z,70
2017-08-03T03:57:29.448Z,70
2017-08-03T03:58:39.715Z,80
2017-08-03T03:59:49.680Z,80
2017-08-03T04:00:59.317Z,80
2017-08-03T04:02:09.580Z,85
2017-08-03T04:03:19.851Z,85
2017-08-03T04:04:30.118Z,85
2017-08-03T04:05:40.382Z,90
2017-08-03T04:06:50.649Z,90
2017-08-03T04:08:00.915Z,90
2017-08-03T04:09:11.179Z,90
2017-08-03T04:10:21.448Z,90
2017-08-03T04:11:31.713Z,95
2017-08-03T04:12:41.982Z,95
2017-08-03T04:13:52.253Z,90
2017-08-03T04:15:02.517Z,85
2017-08-03T04:16:12.867Z,90
2017-08-03T04:17:23.143Z,90
2017-08-03T04:18:32.777Z,90
2017-08-03T04:19:43.046Z,90
2017-08-03T04:20:53.325Z,95
2017-08-03T04:22:03.596Z,95
2017-08-03T04:23:13.871Z,95
2017-08-03T04:24:23.824Z,100
2017-08-03T04:25:33.777Z,105
2017-08-03T04:26:44.046Z,110
2017-08-03T04:27:53.999Z,110
2017-08-03T04:29:03.964Z,110
2017-08-03T04:30:14.232Z,115
2017-08-03T04:31:24.182Z,115
2017-08-03T04:32:34.451Z,115
2017-08-03T04:33:44.724Z,115
2017-08-03T04:34:54.676Z,110
2017-08-03T04:36:04.045Z,110
2017-08-03T04:37:14.316Z,115
2017-08-03T04:38:24.582Z,115
2017-08-03T04:39:34.851Z,125
2017-08-03T04:40:45.120Z,125
2017-08-03T04:41:54.756Z,125
2017-08-03T04:43:04.708Z,125
2017-08-03T04:44:14.652Z,125
2017-08-03T04:45:24.920Z,125
2017-08-03T04:46:35.184Z,125
2017-08-03T04:47:45.451Z,120
2017-08-03T04:48:55.745Z,120
2017-08-03T04:50:05.700Z,120
2017-08-03T04:51:15.970Z,120
2017-08-03T04:52:26.240Z,125
2017-08-03T04:53:36.207Z,125
2017-08-03T04:54:46.498Z,125
2017-08-03T04:55:56.447Z,125
2017-08-03T04:57:06.714Z,130
2017-08-03T04:58:16.659Z,130
2017-08-03T04:59:26.932Z,130
2017-08-03T05:00:36.885Z,125
2017-08-03T05:01:46.836Z,125
2017-08-03T05:02:56.495Z,130
2017-08-03T05:04:06.766Z,130
2017-08-03T05:05:17.035Z,130
2017-08-03T05:06:26.686Z,135
2017-08-03T05:07:36.951Z,135
2017-08-03T05:08:46.909Z,135
2017-08-03T05:09:57.181Z,135
2017-08-03T05:11:07.443Z,135
2017-08-03T05:12:17.399Z,140
2017-08-03T05:13:27.060Z,135
2017-08-03T05:14:37.326Z,140
2017-08-03T05:15:47.598Z,135
2017-08-03T05:16:57.238Z,130
2017-08-03T05:18:07.195Z,125
2017-08-03T05:19:17.465Z,130
2017-08-03T05:20:27.418Z,130
2017-08-03T05:21:37.687Z,135
2017-08-03T05:22:47.961Z,140
2017-08-03T05:23:57.611Z,145
2017-08-03T05:25:07.888Z,150
2017-08-03T05:26:18.160Z,150
2017-08-03T05:27:28.434Z,155
2017-08-03T05:28:38.708Z,150
2017-08-03T05:29:48.976Z,145
2017-08-03T05:30:59.274Z,140
2017-08-03T05:32:09.549Z,145
2017-08-03T05:33:19.829Z,155
2017-08-03T05:34:30.104Z,160
2017-08-03T05:35:40.370Z,170
2017-08-03T05:36:50.012Z,185
2017-08-03T05:38:00.285Z,185
2017-08-03T05:39:10.550Z,190
2017-08-03T05:40:20.821Z,195
2017-08-03T05:41:30.774Z,190
2017-08-03T05:42:40.424Z,185
2017-08-03T05:43:50.696Z,180
2017-08-03T05:45:00.024Z,185
2017-08-03T05:46:10.296Z,190
2017-08-03T05:47:20.564Z,190
2017-08-03T05:48:30.833Z,195
2017-08-03T05:49:40.475Z,200
2017-08-03T05:50:50.439Z,190
2017-08-03T05:52:00.393Z,190
2017-08-03T05:53:10.661Z,190
2017-08-03T05:54:20.946Z,200
2017-08-03T05:55:31.222Z,210
2017-08-03T05:56:41.175Z,200
2017-08-03T05:57:51.130Z,195
2017-08-03T05:59:01.398Z,185
2017-08-03T06:00:11.669Z,180
2017-08-03T06:01:21.937Z,180
2017-08-03T06:02:31.886Z,175
2017-08-03T06:03:41.847Z,165
2017-08-03T06:04:52.118Z,170
2017-08-03T06:06:02.391Z,180
2017-08-03T06:07:12.366Z,175
2017-08-03T06:08:22.318Z,190
2017-08-03T06:09:32.591Z,200
2017-08-03T06:10:42.858Z,200
2017-08-03T06:11:52.811Z,195
2017-08-03T06:13:03.080Z,195
2017-08-03T06:14:13.037Z,200
2017-08-03T06:15:23.306Z,200
2017-08-03T06:16:33.263Z,205
2017-08-03T06:17:43.216Z,205
2017-08-03T06:18:53.171Z,205
2017-08-03T06:20:03.434Z,200
2017-08-03T06:21:13.077Z,200
2017-08-03T06:22:23.357Z,195
2017-08-03T06:23:33.625Z,195
2017-08-03T06:24:43.582Z,185
2017-08-03T06:25:53.533Z,180
2017-08-03T06:27:03.802Z,185
2017-08-03T06:28:13.443Z,195
2017-08-03T06:29:23.716Z,200
2017-08-03T06:30:33.669Z,210
2017-08-03T06:31:43.935Z,215
2017-08-03T06:32:54.201Z,205
2017-08-03T06:34:04.473Z,200
2017-08-03T06:35:14.434Z,190
2017-08-03T06:36:24.398Z,190
2017-08-03T06:37:34.667Z,190
2017-08-03T06:38:44.943Z,195
2017-08-03T06:39:54.914Z,195
2017-08-03T06:41:05.213Z,210
2017-08-03T06:42:15.483Z,210
2017-08-03T06:43:25.750Z,205
2017-08-03T06:44:36.020Z,205
2017-08-03T06:45:46.303Z,205
2017-08-03T06:46:56.574Z,210
2017-08-03T06:48:06.531Z,210
2017-08-03T06:49:16.485Z,215
2017-08-03T06:50:26.440Z,220
2017-08-03T06:51:36.707Z,230
2017-08-03T06:52:46.671Z,230
2017-08-03T06:53:56.944Z,240
2017-08-03T06:55:07.211Z,255
2017-08-03T06:56:17.172Z,250
2017-08-03T06:57:27.444Z,250
2017-08-03T06:58:37.405Z,245
2017-08-03T06:59:47.364Z,250
2017-08-03T07:00:57.009Z,245
2017-08-03T07:02:07.288Z,270
2017-08-03T07:03:17.245Z,280
2017-08-03T07:04:27.518Z,295
2017-08-03T07:05:37.787Z,280
2017-08-03T07:06:48.061Z,280
2017-08-03T07:07:58.329Z,270
2017-08-03T07:09:08.282Z,270
2017-08-03T07:10:18.566Z,280
2017-08-03T07:11:28.522Z,275
2017-08-03T07:12:37.851Z,285
2017-08-03T07:13:48.142Z,330
2017-08-03T07:14:58.408Z,345
2017-08-03T07:16:08.368Z,320
2017-08-03T07:17:18.635Z,310
2017-08-03T07:18:28.912Z,300
2017-08-03T07:19:39.187Z,295
2017-08-03T07:20:48.527Z,345
2017-08-03T07:21:58.484Z,355
2017-08-03T07:23:08.757Z,315
2017-08-03T07:24:19.026Z,315
2017-08-03T07:25:29.296Z,290
2017-08-03T07:26:39.571Z,270
2017-08-03T07:27:49.845Z,280
2017-08-03T07:29:00.116Z,290
2017-08-03T07:30:10.074Z,275
2017-08-03T07:31:20.349Z,270
2017-08-03T07:32:30.305Z,280
2017-08-03T07:33:40.581Z,310
2017-08-03T07:34:50.535Z,310
2017-08-03T07:36:00.179Z,305
2017-08-03T07:37:10.453Z,300
2017-08-03T07:38:20.750Z,300
2017-08-03T07:39:30.401Z,295
2017-08-03T07:40:40.675Z,290
2017-08-03T07:41:50.949Z,295
2017-08-03T07:43:01.220Z,300
2017-08-03T07:44:11.498Z,315
2017-08-03T07:45:21.771Z,310
2017-08-03T07:46:32.041Z,310
2017-08-03T07:47:42.318Z,320
2017-08-03T07:48:52.591Z,300
2017-08-03T07:50:02.857Z,285
2017-08-03T07:51:12.527Z,290
2017-08-03T07:52:22.801Z,285
2017-08-03T07:53:33.078Z,280
2017-08-03T07:54:43.355Z,275
2017-08-03T07:55:53.634Z,265
2017-08-03T07:57:03.587Z,265
2017-08-03T07:58:13.864Z,265
2017-08-03T07:59:23.509Z,275
2017-08-03T08:00:33.479Z,280
2017-08-03T08:01:43.438Z,295
2017-08-03T08:02:53.710Z,295
2017-08-03T08:04:03.989Z,295
2017-08-03T08:05:14.261Z,310
2017-08-03T08:06:24.536Z,305
2017-08-03T08:07:34.807Z,290
2017-08-03T08:08:44.134Z,290
2017-08-03T08:09:54.410Z,280
2017-08-03T08:11:04.684Z,275
2017-08-03T08:12:14.647Z,270
2017-08-03T08:13:24.921Z,275
2017-08-03T08:14:34.893Z,290
2017-08-03T08:15:45.170Z,300
2017-08-03T08:16:55.125Z,315
2017-08-03T08:18:05.087Z,320
2017-08-03T08:19:15.358Z,315
2017-08-03T08:20:25.646Z,315
2017-08-03T08:21:35.602Z,300
2017-08-03T08:22:45.872Z,285
2017-08-03T08:23:55.197Z,290
2017-08-03T08:25:04.842Z,305
2017-08-03T08:26:14.800Z,305
2017-08-03T08:27:25.072Z,300
2017-08-03T08:28:35.349Z,290
2017-08-03T08:29:45.624Z,290
2017-08-03T08:30:55.588Z,275
2017-08-03T08:32:05.554Z,255
2017-08-03T08:33:15.868Z,250
2017-08-03T08:34:26.138Z,250
2017-08-03T08:35:36.410Z,245
2017-08-03T08:36:46.685Z,260
2017-08-03T08:37:56.956Z,290
2017-08-03T08:39:07.231Z,320
2017-08-03T08:40:17.511Z,345
2017-08-03T08:41:27.156Z,365
2017-08-03T08:42:37.116Z,380
2017-08-03T08:43:47.074Z,365
2017-08-03T08:44:57.353Z,340
2017-08-03T08:46:07.313Z,335
2017-08-03T08:47:17.590Z,345
2017-08-03T08:48:27.863Z,360
2017-08-03T08:49:37.826Z,385
2017-08-03T08:50:48.094Z,405
2017-08-03T08:51:57.738Z,420
2017-08-03T08:53:07.693Z,420
2017-08-03T08:54:17.974Z,400
2017-08-03T08:55:28.244Z,380
2017-08-03T08:56:38.203Z,380
2017-08-03T08:57:48.165Z,355
2017-08-03T08:58:58.118Z,340
2017-08-03T09:00:08.394Z,320
2017-08-03T09:01:18.059Z,305
2017-08-03T09:02:28.330Z,290
2017-08-03T09:03:38.287Z,275
2017-08-03T09:04:48.557Z,260
2017-08-03T09:05:58.833Z,250
2017-08-03T09:07:09.101Z,240
2017-08-03T09:08:19.059Z,230
2017-08-03T09:09:29.335Z,225
2017-08-03T09:10:39.607Z,220
2017-08-03T09:11:49.888Z,220
2017-08-03T09:13:00.160Z,220
2017-08-03T09:14:10.435Z,220
2017-08-03T09:15:20.734Z,220
2017-08-03T09:16:31.006Z,220
2017-08-03T09:17:41.281Z,215
2017-08-03T09:18:51.576Z,220
2017-08-03T09:20:01.220Z,220
2017-08-03T09:21:11.496Z,215
2017-08-03T09:22:21.790Z,220
2017-08-03T09:23:32.059Z,225
2017-08-03T09:24:42.329Z,220
2017-08-03T09:25:51.971Z,220
2017-08-03T09:27:02.243Z,220
2017-08-03T09:28:12.514Z,220
2017-08-03T09:29:22.473Z,225
2017-08-03T09:30:32.430Z,225
2017-08-03T09:31:42.703Z,230
2017-08-03T09:32:52.978Z,235
2017-08-03T09:34:02.630Z,240
2017-08-03T09:35:12.910Z,250
2017-08-03T09:36:23.184Z,265
2017-08-03T09:37:33.148Z,280
2017-08-03T09:38:43.104Z,285
2017-08-03T09:39:53.383Z,295
2017-08-03T09:41:03.678Z,300
2017-08-03T09:42:13.633Z,310
2017-08-03T09:43:23.905Z,315
2017-08-03T09:44:33.553Z,315
2017-08-03T09:45:43.830Z,310
2017-08-03T09:46:53.492Z,335
2017-08-03T09:48:03.771Z,335
2017-08-03T09:49:14.044Z,335
2017-08-03T09:50:24.033Z,360
2017-08-03T09:51:34.312Z,345
2017-08-03T09:52:44.597Z,345
2017-08-03T09:53:54.878Z,355
2017-08-03T09:55:05.156Z,365
2017-08-03T09:56:15.436Z,365
2017-08-03T09:57:25.719Z,360
2017-08-03T09:58:36.001Z,350
2017-08-03T09:59:45.954Z,335
2017-08-03T10:00:56.227Z,335
2017-08-03T10:02:06.190Z,320
2017-08-03T10:03:16.157Z,305
2017-08-03T10:04:26.429Z,290
2017-08-03T10:05:36.392Z,285
2017-08-03T10:06:46.663Z,280
2017-08-03T10:07:56.940Z,285
2017-08-03T10:09:06.907Z,280
2017-08-03T10:10:16.878Z,270
2017-08-03T10:11:27.154Z,265
2017-08-03T10:12:37.430Z,265
2017-08-03T10:13:46.766Z,265
2017-08-03T10:14:56.411Z,270
2017-08-03T10:16:06.368Z,265
2017-08-03T10:17:16.332Z,265
2017-08-03T10:18:26.614Z,265
2017-08-03T10:19:36.894Z,260
2017-08-03T10:20:47.171Z,260
2017-08-03T10:21:56.504Z,260
2017-08-03T10:23:06.784Z,260
2017-08-03T10:24:17.064Z,255
2017-08-03T10:25:27.342Z,260
2017-08-03T10:26:37.618Z,260
2017-08-03T10:27:47.579Z,265
2017-08-03T10:28:57.538Z,265
2017-08-03T10:30:07.816Z,270
2017-08-03T10:31:18.087Z,280
2017-08-03T10:32:27.737Z,290
2017-08-03T10:33:37.394Z,300
2017-08-03T10:34:47.695Z,315
2017-08-03T10:35:57.657Z,335
2017-08-03T10:37:07.936Z,345
2017-08-03T10:38:18.213Z,355
2017-08-03T10:39:28.175Z,365
2017-08-03T10:40:38.446Z,355
2017-08-03T10:41:48.719Z,350
2017-08-03T10:42:58.681Z,340
2017-08-03T10:44:08.650Z,335
2017-08-03T10:45:18.930Z,335
2017-08-03T10:46:29.207Z,325
2017-08-03T10:47:39.490Z,335
2017-08-03T10:48:49.138Z,335
2017-08-03T10:49:59.094Z,345
2017-08-03T10:51:09.050Z,350
2017-08-03T10:52:19.011Z,355
2017-08-03T10:53:29.284Z,365
2017-08-03T10:54:39.566Z,320
2017-08-03T10:55:49.845Z,335
2017-08-03T10:57:00.114Z,355
2017-08-03T10:58:09.757Z,405
2017-08-03T10:59:20.029Z,435
2017-08-03T11:00:29.047Z,445
2017-08-03T11:01:39.009Z,410
2017-08-03T11:02:48.973Z,410
2017-08-03T11:03:59.255Z,385
2017-08-03T11:05:08.589Z,385
2017-08-03T11:06:18.866Z,430
2017-08-03T11:07:29.140Z,425
2017-08-03T11:08:39.104Z,410
2017-08-03T11:09:49.064Z,390
2017-08-03T11:10:59.353Z,375
2017-08-03T11:12:09.322Z,370
2017-08-03T11:13:19.599Z,380
2017-08-03T11:14:29.876Z,385
2017-08-03T11:15:40.155Z,380
2017-08-03T11:16:50.433Z,380
2017-08-03T11:18:00.396Z,380
2017-08-03T11:19:10.669Z,390
2017-08-03T11:20:20.953Z,390
2017-08-03T11:21:31.224Z,400
2017-08-03T11:22:41.496Z,415
2017-08-03T11:23:51.142Z,430
2017-08-03T11:25:01.440Z,450
2017-08-03T11:26:11.717Z,460
2017-08-03T11:27:21.998Z,470
2017-08-03T11:28:31.955Z,485
2017-08-03T11:29:41.917Z,500
2017-08-03T11:30:52.190Z,520
2017-08-03T11:32:01.528Z,550
2017-08-03T11:33:11.817Z,675
2017-08-03T11:34:21.462Z,1850
2017-08-03T11:35:31.421Z,2520
2017-08-03T11:36:41.067Z,2025
2017-08-03T11:37:51.350Z,2320
2017-08-03T11:39:01.628Z,2255
2017-08-03T11:40:11.591Z,2240
2017-08-03T11:41:21.871Z,2405
2017-08-03T11:42:31.843Z,2790
2017-08-03T11:43:42.125Z,2715
2017-08-03T11:44:52.407Z,3030
2017-08-03T11:46:02.377Z,905
2017-08-03T11:47:12.663Z,1730
2017-08-03T11:48:22.632Z,975
2017-08-03T11:49:32.913Z,695
2017-08-03T11:50:43.192Z,645
2017-08-03T11:51:53.473Z,600
2017-08-03T11:53:03.443Z,595
2017-08-03T11:54:13.726Z,615
2017-08-03T11:55:23.694Z,640
2017-08-03T11:56:33.973Z,655
2017-08-03T11:57:43.619Z,660
2017-08-03T11:58:53.902Z,660
2017-08-03T12:00:04.188Z,650
2017-08-03T12:01:14.157Z,640
2017-08-03T12:02:24.440Z,615
2017-08-03T12:03:34.093Z,590
2017-08-03T12:04:44.372Z,565
2017-08-03T12:05:54.352Z,530
2017-08-03T12:07:04.635Z,490
2017-08-03T12:08:14.914Z,470
2017-08-03T12:09:25.198Z,455
2017-08-03T12:10:35.484Z,440
2017-08-03T12:11:45.780Z,455
2017-08-03T12:12:56.061Z,510
2017-08-03T12:14:06.338Z,600
2017-08-03T12:15:16.620Z,775
2017-08-03T12:16:26.590Z,725
2017-08-03T12:17:36.865Z,685
2017-08-03T12:18:47.145Z,745
2017-08-03T12:19:56.800Z,830
2017-08-03T12:21:06.762Z,1010
2017-08-03T12:22:16.416Z,1345
2017-08-03T12:23:26.712Z,2150
2017-08-03T12:24:36.997Z,2640
2017-08-03T12:25:46.648Z,2555
2017-08-03T12:26:56.617Z,2615
2017-08-03T12:28:07.207Z,1190
2017-08-03T12:29:17.184Z,1115
2017-08-03T12:30:27.461Z,1130
2017-08-03T12:31:37.426Z,1135
2017-08-03T12:32:47.080Z,1065
2017-08-03T12:33:56.741Z,1135
2017-08-03T12:35:06.709Z,1145
2017-08-03T12:36:16.681Z,1160
2017-08-03T12:37:26.338Z,1100
2017-08-03T12:38:36.621Z,1165
2017-08-03T12:39:46.588Z,1870
2017-08-03T12:40:56.238Z,2135
2017-08-03T12:42:06.519Z,1530
2017-08-03T12:43:16.805Z,1805
2017-08-03T12:44:26.776Z,1150
2017-08-03T12:45:37.065Z,935
2017-08-03T12:46:46.726Z,820
2017-08-03T12:47:57.008Z,770
2017-08-03T12:49:06.665Z,735
2017-08-03T12:50:16.949Z,740
2017-08-03T12:51:26.917Z,745
2017-08-03T12:52:36.907Z,765
2017-08-03T12:53:47.194Z,775
2017-08-03T12:54:57.482Z,805
2017-08-03T12:56:07.774Z,880
2017-08-03T12:57:18.048Z,850
2017-08-03T12:58:28.326Z,835
2017-08-03T12:59:38.297Z,850
2017-08-03T13:00:47.641Z,860
2017-08-03T13:01:57.921Z,865
2017-08-03T13:03:08.203Z,855
2017-08-03T13:04:18.481Z,845
2017-08-03T13:05:28.446Z,820
2017-08-03T13:06:38.413Z,800
2017-08-03T13:07:48.693Z,790
2017-08-03T13:08:58.968Z,800
2017-08-03T13:10:09.252Z,790
2017-08-03T13:11:19.538Z,765
2017-08-03T13:12:29.828Z,750
2017-08-03T13:13:39.486Z,745
2017-08-03T13:14:49.454Z,755
2017-08-03T13:15:59.420Z,765
2017-08-03T13:17:09.075Z,745
2017-08-03T13:18:19.360Z,705
2017-08-03T13:19:29.325Z,680
2017-08-03T13:20:39.297Z,650
2017-08-03T13:21:49.578Z,630
2017-08-03T13:22:59.856Z,600
2017-08-03T13:24:10.153Z,575
2017-08-03T13:25:20.437Z,540
2017-08-03T13:26:30.718Z,525
2017-08-03T13:27:40.683Z,505
2017-08-03T13:28:50.963Z,480
2017-08-03T13:30:00.929Z,455
2017-08-03T13:31:10.894Z,430
2017-08-03T13:32:21.171Z,400
2017-08-03T13:33:31.452Z,375
2017-08-03T13:34:41.732Z,355
2017-08-03T13:35:52.023Z,345
2017-08-03T13:37:02.304Z,335
2017-08-03T13:38:11.968Z,340
2017-08-03T13:39:22.245Z,365
2017-08-03T13:40:32.525Z,405
2017-08-03T13:41:42.814Z,450
2017-08-03T13:42:53.097Z,465
2017-08-03T13:44:03.476Z,470
2017-08-03T13:45:13.976Z,465
2017-08-03T13:46:24.363Z,465
2017-08-03T13:47:34.141Z,475
2017-08-03T13:48:44.294Z,480
2017-08-03T13:49:54.358Z,485
2017-08-03T13:51:04.642Z,480
2017-08-03T13:52:14.927Z,465
2017-08-03T13:53:25.218Z,445
2017-08-03T13:54:35.498Z,415
2017-08-03T13:55:45.151Z,390
2017-08-03T13:56:54.799Z,360
2017-08-03T13:58:05.084Z,340
2017-08-03T13:59:15.362Z,325
2017-08-03T14:00:25.333Z,315
2017-08-03T14:01:34.980Z,315
2017-08-03T14:02:44.942Z,315
2017-08-03T14:03:55.221Z,330
2017-08-03T14:05:05.184Z,345
2017-08-03T14:06:15.460Z,365
2017-08-03T14:07:25.742Z,375
2017-08-03T14:08:36.042Z,375
2017-08-03T14:09:46.017Z,360
2017-08-03T14:10:55.978Z,330
2017-08-03T14:12:05.628Z,310
2017-08-03T14:13:15.906Z,285
2017-08-03T14:14:25.866Z,265
2017-08-03T14:15:35.832Z,245
2017-08-03T14:16:46.106Z,230
2017-08-03T14:17:56.086Z,210
2017-08-03T14:19:06.052Z,205
2017-08-03T14:20:16.021Z,200
2017-08-03T14:21:26.303Z,205
2017-08-03T14:22:36.577Z,220
2017-08-03T14:23:46.544Z,235
2017-08-03T14:24:56.826Z,250
2017-08-03T14:26:06.788Z,255
2017-08-03T14:27:17.109Z,260
2017-08-03T14:28:27.075Z,275
2017-08-03T14:29:37.036Z,290
2017-08-03T14:30:46.997Z,325
2017-08-03T14:31:57.285Z,370
2017-08-03T14:33:07.563Z,420
2017-08-03T14:34:17.525Z,470
2017-08-03T14:35:27.812Z,515
2017-08-03T14:36:37.774Z,560
2017-08-03T14:37:48.054Z,565
2017-08-03T14:38:58.337Z,520
2017-08-03T14:40:08.303Z,460
2017-08-03T14:41:18.585Z,395
2017-08-03T14:42:28.868Z,340
2017-08-03T14:43:39.144Z,315
2017-08-03T14:44:49.111Z,300
2017-08-03T14:45:58.760Z,300
2017-08-03T14:47:09.037Z,295
2017-08-03T14:48:18.999Z,280
2017-08-03T14:49:28.963Z,265
2017-08-03T14:50:38.612Z,250
2017-08-03T14:51:48.893Z,235
2017-08-03T14:52:58.861Z,220
2017-08-03T14:54:08.823Z,210
2017-08-03T14:55:19.110Z,220
2017-08-03T14:56:29.079Z,245
2017-08-03T14:57:39.358Z,260
2017-08-03T14:58:49.341Z,255
2017-08-03T14:59:59.303Z,250
2017-08-03T15:01:09.588Z,260
2017-08-03T15:02:19.562Z,275
2017-08-03T15:03:29.533Z,290
2017-08-03T15:04:39.500Z,310
2017-08-03T15:05:49.779Z,310
2017-08-03T15:07:00.053Z,285
2017-08-03T15:08:10.023Z,265
2017-08-03T15:09:19.986Z,245
2017-08-03T15:10:30.266Z,225
2017-08-03T15:11:39.915Z,215
2017-08-03T15:12:49.874Z,215
2017-08-03T15:14:00.149Z,230
2017-08-03T15:15:10.426Z,250
2017-08-03T15:16:20.399Z,275
2017-08-03T15:17:30.676Z,280
2017-08-03T15:18:40.641Z,290
2017-08-03T15:19:50.918Z,295
2017-08-03T15:21:00.882Z,300
2017-08-03T15:22:10.531Z,295
2017-08-03T15:23:20.809Z,290
2017-08-03T15:24:31.089Z,290
2017-08-03T15:25:41.374Z,300
2017-08-03T15:26:51.333Z,310
2017-08-03T15:28:00.662Z,320
2017-08-03T15:29:10.629Z,310
2017-08-03T15:30:20.908Z,295
2017-08-03T15:31:30.563Z,275
2017-08-03T15:32:40.838Z,265
2017-08-03T15:33:51.112Z,250
2017-08-03T15:35:01.396Z,250
2017-08-03T15:36:11.678Z,255
2017-08-03T15:37:21.358Z,260
2017-08-03T15:38:31.331Z,260
2017-08-03T15:39:41.608Z,260
2017-08-03T15:40:51.899Z,270
2017-08-03T15:42:01.545Z,290
2017-08-03T15:43:11.821Z,310
2017-08-03T15:44:21.774Z,340
2017-08-03T15:45:31.738Z,370
2017-08-03T15:46:42.020Z,405
2017-08-03T15:47:51.984Z,410
2017-08-03T15:49:01.943Z,405
2017-08-03T15:50:12.220Z,395
2017-08-03T15:51:22.500Z,390
2017-08-03T15:52:32.786Z,370
2017-08-03T15:53:43.109Z,340
2017-08-03T15:54:52.757Z,305
2017-08-03T15:56:02.728Z,280
2017-08-03T15:57:12.374Z,250
2017-08-03T15:58:22.019Z,230
2017-08-03T15:59:32.299Z,210
2017-08-03T16:00:42.260Z,190
2017-08-03T16:01:52.541Z,175
2017-08-03T16:03:02.813Z,155
2017-08-03T16:04:13.089Z,135
2017-08-03T16:05:23.370Z,120
2017-08-03T16:06:33.656Z,110
2017-08-03T16:07:43.933Z,105
2017-08-03T16:08:54.207Z,100
2017-08-03T16:10:04.485Z,100
2017-08-03T16:11:14.760Z,100
2017-08-03T16:12:25.042Z,100
2017-08-03T16:13:35.327Z,100
2017-08-03T16:14:45.285Z,95
2017-08-03T16:15:55.249Z,100
2017-08-03T16:17:05.526Z,105
2017-08-03T16:18:15.800Z,105